sensor_id;sensor_type;location;lat;lon;timestamp;P1;durP1;ratioP1;P2;durP2;ratioP2
70450;SDS011;58869;51.982;4.450;2022-12-29T00:01:47;3.19;;;3.19;;
70450;SDS011;58869;51.982;4.450;2022-12-29T00:04:13;2.79;;;2.79;;
70450;SDS011;58869;51.982;4.450;2022-12-29T00:06:40;2.55;;;2.55;;
70450;SDS011;58869;51.982;4.450;2022-12-29T00:09:06;2.73;;;2.73;;
70450;SDS011;58869;51.982;4.450;2022-12-29T00:11:32;2.90;;;2.90;;
70450;SDS011;58869;51.982;4.450;2022-12-29T00:13:57;2.55;;;2.55;;
70450;SDS011;58869;51.982;4.450;2022-12-29T00:16:42;2.47;;;2.47;;
70450;SDS011;58869;51.982;4.450;2022-12-29T00:19:09;2.69;;;2.69;;
70450;SDS011;58869;51.982;4.450;2022-12-29T00:21:55;2.63;;;2.63;;
70450;SDS011;58869;51.982;4.450;2022-12-29T00:24:39;2.60;;;2.60;;
70450;SDS011;58869;51.982;4.450;2022-12-29T00:27:23;2.78;;;2.78;;
70450;SDS011;58869;51.982;4.450;2022-12-29T00:30:10;2.50;;;2.50;;
70450;SDS011;58869;51.982;4.450;2022-12-29T00:32:56;2.38;;;2.38;;
70450;SDS011;58869;51.982;4.450;2022-12-29T00:35:44;2.60;;;2.60;;
70450;SDS011;58869;51.982;4.450;2022-12-29T00:38:12;2.34;;;2.34;;
70450;SDS011;58869;51.982;4.450;2022-12-29T00:40:58;2.11;;;2.11;;
70450;SDS011;58869;51.982;4.450;2022-12-29T00:43:42;2.23;;;2.23;;
70450;SDS011;58869;51.982;4.450;2022-12-29T00:46:26;2.06;;;2.06;;
70450;SDS011;58869;51.982;4.450;2022-12-29T00:48:51;2.05;;;2.05;;
70450;SDS011;58869;51.982;4.450;2022-12-29T00:51:35;2.10;;;2.10;;
70450;SDS011;58869;51.982;4.450;2022-12-29T00:54:01;2.10;;;2.10;;
70450;SDS011;58869;51.982;4.450;2022-12-29T00:56:26;2.04;;;2.04;;
70450;SDS011;58869;51.982;4.450;2022-12-29T00:58:52;2.06;;;2.06;;
70450;SDS011;58869;51.982;4.450;2022-12-29T01:01:17;2.04;;;2.04;;
70450;SDS011;58869;51.982;4.450;2022-12-29T01:03:42;1.76;;;1.76;;
70450;SDS011;58869;51.982;4.450;2022-12-29T01:06:09;1.63;;;1.63;;
70450;SDS011;58869;51.982;4.450;2022-12-29T01:08:35;1.37;;;1.37;;
70450;SDS011;58869;51.982;4.450;2022-12-29T01:11:08;1.56;;;1.56;;
70450;SDS011;58869;51.982;4.450;2022-12-29T01:13:35;1.78;;;1.78;;
70450;SDS011;58869;51.982;4.450;2022-12-29T01:16:03;1.65;;;1.65;;
70450;SDS011;58869;51.982;4.450;2022-12-29T01:18:29;1.87;;;1.87;;
70450;SDS011;58869;51.982;4.450;2022-12-29T01:20:59;1.99;;;1.99;;
70450;SDS011;58869;51.982;4.450;2022-12-29T01:23:25;1.94;;;1.94;;
70450;SDS011;58869;51.982;4.450;2022-12-29T01:25:51;1.78;;;1.78;;
70450;SDS011;58869;51.982;4.450;2022-12-29T01:28:16;2.04;;;2.04;;
70450;SDS011;58869;51.982;4.450;2022-12-29T01:30:42;1.82;;;1.82;;
70450;SDS011;58869;51.982;4.450;2022-12-29T01:33:07;1.95;;;1.95;;
70450;SDS011;58869;51.982;4.450;2022-12-29T01:35:33;2.02;;;2.02;;
70450;SDS011;58869;51.982;4.450;2022-12-29T01:37:58;1.88;;;1.88;;
70450;SDS011;58869;51.982;4.450;2022-12-29T01:40:24;1.86;;;1.86;;
70450;SDS011;58869;51.982;4.450;2022-12-29T01:42:50;2.13;;;2.13;;
70450;SDS011;58869;51.982;4.450;2022-12-29T01:45:16;2.15;;;2.15;;
70450;SDS011;58869;51.982;4.450;2022-12-29T01:50:15;2.18;;;2.18;;
70450;SDS011;58869;51.982;4.450;2022-12-29T01:52:58;1.69;;;1.69;;
70450;SDS011;58869;51.982;4.450;2022-12-29T01:55:27;1.52;;;1.48;;
70450;SDS011;58869;51.982;4.450;2022-12-29T01:58:01;1.76;;;1.68;;
70450;SDS011;58869;51.982;4.450;2022-12-29T02:00:29;1.63;;;1.53;;
70450;SDS011;58869;51.982;4.450;2022-12-29T02:02:55;1.76;;;1.62;;
70450;SDS011;58869;51.982;4.450;2022-12-29T02:07:58;1.99;;;1.69;;
70450;SDS011;58869;51.982;4.450;2022-12-29T02:10:29;2.47;;;1.99;;
70450;SDS011;58869;51.982;4.450;2022-12-29T02:12:56;2.69;;;2.10;;
70450;SDS011;58869;51.982;4.450;2022-12-29T02:21:13;2.94;;;2.10;;
70450;SDS011;58869;51.982;4.450;2022-12-29T02:27:37;2.93;;;2.03;;
70450;SDS011;58869;51.982;4.450;2022-12-29T02:30:05;3.51;;;2.38;;
70450;SDS011;58869;51.982;4.450;2022-12-29T02:38:25;3.47;;;2.32;;
70450;SDS011;58869;51.982;4.450;2022-12-29T02:40:59;4.08;;;2.76;;
70450;SDS011;58869;51.982;4.450;2022-12-29T02:43:44;4.03;;;2.73;;
70450;SDS011;58869;51.982;4.450;2022-12-29T02:46:36;4.31;;;2.89;;
70450;SDS011;58869;51.982;4.450;2022-12-29T02:49:17;4.54;;;3.03;;
70450;SDS011;58869;51.982;4.450;2022-12-29T02:51:52;5.11;;;3.39;;
70450;SDS011;58869;51.982;4.450;2022-12-29T02:54:25;5.23;;;3.42;;
70450;SDS011;58869;51.982;4.450;2022-12-29T02:59:51;6.71;;;4.24;;
70450;SDS011;58869;51.982;4.450;2022-12-29T03:02:24;6.73;;;4.20;;
70450;SDS011;58869;51.982;4.450;2022-12-29T03:15:59;4.92;;;3.11;;
70450;SDS011;58869;51.982;4.450;2022-12-29T03:21:05;5.18;;;3.28;;
70450;SDS011;58869;51.982;4.450;2022-12-29T03:23:37;5.22;;;3.33;;
70450;SDS011;58869;51.982;4.450;2022-12-29T03:26:08;5.02;;;3.17;;
70450;SDS011;58869;51.982;4.450;2022-12-29T03:28:37;5.37;;;3.42;;
70450;SDS011;58869;51.982;4.450;2022-12-29T03:31:08;4.59;;;2.99;;
70450;SDS011;58869;51.982;4.450;2022-12-29T03:33:35;4.33;;;2.87;;
70450;SDS011;58869;51.982;4.450;2022-12-29T03:36:04;4.37;;;2.92;;
70450;SDS011;58869;51.982;4.450;2022-12-29T03:38:38;4.09;;;2.78;;
70450;SDS011;58869;51.982;4.450;2022-12-29T03:41:20;4.48;;;3.05;;
70450;SDS011;58869;51.982;4.450;2022-12-29T03:43:49;4.52;;;3.00;;
70450;SDS011;58869;51.982;4.450;2022-12-29T03:46:15;4.22;;;2.80;;
70450;SDS011;58869;51.982;4.450;2022-12-29T03:48:40;4.65;;;3.05;;
70450;SDS011;58869;51.982;4.450;2022-12-29T03:51:06;4.40;;;2.92;;
70450;SDS011;58869;51.982;4.450;2022-12-29T03:53:31;4.50;;;2.96;;
70450;SDS011;58869;51.982;4.450;2022-12-29T03:55:57;4.72;;;3.10;;
70450;SDS011;58869;51.982;4.450;2022-12-29T03:58:22;5.05;;;3.30;;
70450;SDS011;58869;51.982;4.450;2022-12-29T04:00:48;5.51;;;3.56;;
70450;SDS011;58869;51.982;4.450;2022-12-29T04:03:13;6.11;;;3.87;;
70450;SDS011;58869;51.982;4.450;2022-12-29T04:05:39;6.74;;;4.16;;
70450;SDS011;58869;51.982;4.450;2022-12-29T04:08:04;7.46;;;4.59;;
70450;SDS011;58869;51.982;4.450;2022-12-29T04:10:30;8.12;;;4.97;;
70450;SDS011;58869;51.982;4.450;2022-12-29T04:12:55;7.03;;;4.30;;
70450;SDS011;58869;51.982;4.450;2022-12-29T04:15:21;8.78;;;5.31;;
70450;SDS011;58869;51.982;4.450;2022-12-29T04:17:48;8.41;;;5.15;;
70450;SDS011;58869;51.982;4.450;2022-12-29T04:20:13;8.19;;;4.99;;
70450;SDS011;58869;51.982;4.450;2022-12-29T04:23:01;8.44;;;5.15;;
70450;SDS011;58869;51.982;4.450;2022-12-29T04:25:28;7.94;;;4.85;;
70450;SDS011;58869;51.982;4.450;2022-12-29T04:27:54;7.68;;;4.73;;
70450;SDS011;58869;51.982;4.450;2022-12-29T04:30:19;6.63;;;4.12;;
70450;SDS011;58869;51.982;4.450;2022-12-29T04:32:45;5.81;;;3.65;;
70450;SDS011;58869;51.982;4.450;2022-12-29T04:35:10;6.55;;;4.12;;
70450;SDS011;58869;51.982;4.450;2022-12-29T04:37:35;6.66;;;4.16;;
70450;SDS011;58869;51.982;4.450;2022-12-29T04:40:01;6.61;;;4.10;;
70450;SDS011;58869;51.982;4.450;2022-12-29T04:42:26;6.59;;;4.07;;
70450;SDS011;58869;51.982;4.450;2022-12-29T04:44:52;6.78;;;4.16;;
70450;SDS011;58869;51.982;4.450;2022-12-29T04:47:17;7.55;;;4.58;;
70450;SDS011;58869;51.982;4.450;2022-12-29T04:49:43;7.00;;;4.32;;
70450;SDS011;58869;51.982;4.450;2022-12-29T04:52:08;6.38;;;3.95;;
70450;SDS011;58869;51.982;4.450;2022-12-29T04:54:34;7.10;;;4.44;;
70450;SDS011;58869;51.982;4.450;2022-12-29T04:56:59;7.19;;;4.48;;
70450;SDS011;58869;51.982;4.450;2022-12-29T04:59:25;7.50;;;4.67;;
70450;SDS011;58869;51.982;4.450;2022-12-29T05:01:51;8.47;;;5.19;;
70450;SDS011;58869;51.982;4.450;2022-12-29T05:04:16;7.58;;;4.70;;
70450;SDS011;58869;51.982;4.450;2022-12-29T05:06:41;8.16;;;5.04;;
70450;SDS011;58869;51.982;4.450;2022-12-29T05:09:07;8.51;;;5.23;;
70450;SDS011;58869;51.982;4.450;2022-12-29T05:11:32;9.82;;;5.93;;
70450;SDS011;58869;51.982;4.450;2022-12-29T05:13:58;10.54;;;6.37;;
70450;SDS011;58869;51.982;4.450;2022-12-29T05:16:23;8.96;;;5.47;;
70450;SDS011;58869;51.982;4.450;2022-12-29T05:18:49;9.16;;;5.59;;
70450;SDS011;58869;51.982;4.450;2022-12-29T05:21:14;9.65;;;5.86;;
70450;SDS011;58869;51.982;4.450;2022-12-29T05:23:39;8.64;;;5.38;;
70450;SDS011;58869;51.982;4.450;2022-12-29T05:26:05;7.93;;;5.00;;
70450;SDS011;58869;51.982;4.450;2022-12-29T05:28:31;8.45;;;5.29;;
70450;SDS011;58869;51.982;4.450;2022-12-29T05:30:56;8.88;;;5.57;;
70450;SDS011;58869;51.982;4.450;2022-12-29T05:33:22;8.95;;;5.56;;
70450;SDS011;58869;51.982;4.450;2022-12-29T05:35:47;9.65;;;5.90;;
70450;SDS011;58869;51.982;4.450;2022-12-29T05:38:12;10.16;;;6.20;;
70450;SDS011;58869;51.982;4.450;2022-12-29T05:40:38;10.01;;;6.12;;
70450;SDS011;58869;51.982;4.450;2022-12-29T05:43:03;10.52;;;6.32;;
70450;SDS011;58869;51.982;4.450;2022-12-29T05:45:32;11.14;;;6.68;;
70450;SDS011;58869;51.982;4.450;2022-12-29T05:47:57;11.46;;;6.84;;
70450;SDS011;58869;51.982;4.450;2022-12-29T05:50:22;11.08;;;6.58;;
70450;SDS011;58869;51.982;4.450;2022-12-29T05:52:48;12.37;;;7.27;;
70450;SDS011;58869;51.982;4.450;2022-12-29T05:55:14;11.91;;;7.01;;
70450;SDS011;58869;51.982;4.450;2022-12-29T05:57:39;10.92;;;6.54;;
70450;SDS011;58869;51.982;4.450;2022-12-29T06:00:05;11.38;;;6.78;;
70450;SDS011;58869;51.982;4.450;2022-12-29T06:02:31;10.63;;;6.38;;
70450;SDS011;58869;51.982;4.450;2022-12-29T06:04:56;10.55;;;6.48;;
70450;SDS011;58869;51.982;4.450;2022-12-29T06:07:21;10.32;;;6.33;;
70450;SDS011;58869;51.982;4.450;2022-12-29T06:09:47;9.99;;;6.16;;
70450;SDS011;58869;51.982;4.450;2022-12-29T06:12:15;9.99;;;6.14;;
70450;SDS011;58869;51.982;4.450;2022-12-29T06:14:41;10.48;;;6.42;;
70450;SDS011;58869;51.982;4.450;2022-12-29T06:17:07;10.19;;;6.20;;
70450;SDS011;58869;51.982;4.450;2022-12-29T06:19:32;9.65;;;5.95;;
70450;SDS011;58869;51.982;4.450;2022-12-29T06:21:58;9.54;;;5.80;;
70450;SDS011;58869;51.982;4.450;2022-12-29T06:24:23;10.50;;;6.31;;
70450;SDS011;58869;51.982;4.450;2022-12-29T06:26:48;11.91;;;7.14;;
70450;SDS011;58869;51.982;4.450;2022-12-29T06:29:14;11.57;;;6.93;;
70450;SDS011;58869;51.982;4.450;2022-12-29T06:31:42;12.93;;;7.69;;
70450;SDS011;58869;51.982;4.450;2022-12-29T06:34:13;13.28;;;7.85;;
70450;SDS011;58869;51.982;4.450;2022-12-29T06:36:39;12.33;;;7.37;;
70450;SDS011;58869;51.982;4.450;2022-12-29T06:39:05;12.41;;;7.43;;
70450;SDS011;58869;51.982;4.450;2022-12-29T06:41:30;12.06;;;7.19;;
70450;SDS011;58869;51.982;4.450;2022-12-29T06:43:56;10.48;;;6.22;;
70450;SDS011;58869;51.982;4.450;2022-12-29T06:46:22;10.87;;;6.45;;
70450;SDS011;58869;51.982;4.450;2022-12-29T06:48:47;11.15;;;6.61;;
70450;SDS011;58869;51.982;4.450;2022-12-29T06:51:12;10.14;;;6.10;;
70450;SDS011;58869;51.982;4.450;2022-12-29T06:53:38;8.98;;;5.45;;
70450;SDS011;58869;51.982;4.450;2022-12-29T06:56:03;9.43;;;5.73;;
70450;SDS011;58869;51.982;4.450;2022-12-29T06:58:29;8.24;;;5.02;;
70450;SDS011;58869;51.982;4.450;2022-12-29T07:00:55;7.55;;;4.59;;
70450;SDS011;58869;51.982;4.450;2022-12-29T07:03:21;8.29;;;5.04;;
70450;SDS011;58869;51.982;4.450;2022-12-29T07:05:46;8.51;;;5.20;;
70450;SDS011;58869;51.982;4.450;2022-12-29T07:08:11;8.33;;;5.10;;
70450;SDS011;58869;51.982;4.450;2022-12-29T07:10:37;8.27;;;5.13;;
70450;SDS011;58869;51.982;4.450;2022-12-29T07:13:02;8.14;;;5.09;;
70450;SDS011;58869;51.982;4.450;2022-12-29T07:15:28;8.44;;;5.28;;
70450;SDS011;58869;51.982;4.450;2022-12-29T07:17:53;8.66;;;5.42;;
70450;SDS011;58869;51.982;4.450;2022-12-29T07:20:19;8.53;;;5.39;;
70450;SDS011;58869;51.982;4.450;2022-12-29T07:22:44;9.40;;;5.96;;
70450;SDS011;58869;51.982;4.450;2022-12-29T07:25:13;7.97;;;5.29;;
70450;SDS011;58869;51.982;4.450;2022-12-29T07:27:38;8.21;;;5.60;;
70450;SDS011;58869;51.982;4.450;2022-12-29T07:30:04;8.56;;;5.77;;
70450;SDS011;58869;51.982;4.450;2022-12-29T07:32:33;9.05;;;5.95;;
70450;SDS011;58869;51.982;4.450;2022-12-29T07:34:59;8.89;;;5.86;;
70450;SDS011;58869;51.982;4.450;2022-12-29T07:37:25;9.10;;;5.92;;
70450;SDS011;58869;51.982;4.450;2022-12-29T07:39:50;9.97;;;6.36;;
70450;SDS011;58869;51.982;4.450;2022-12-29T07:42:15;9.18;;;5.85;;
70450;SDS011;58869;51.982;4.450;2022-12-29T07:44:41;10.26;;;6.41;;
70450;SDS011;58869;51.982;4.450;2022-12-29T07:47:07;9.28;;;5.83;;
70450;SDS011;58869;51.982;4.450;2022-12-29T07:49:32;10.62;;;6.57;;
70450;SDS011;58869;51.982;4.450;2022-12-29T07:51:57;11.17;;;6.80;;
70450;SDS011;58869;51.982;4.450;2022-12-29T07:54:23;10.63;;;6.51;;
70450;SDS011;58869;51.982;4.450;2022-12-29T07:56:49;10.78;;;6.64;;
70450;SDS011;58869;51.982;4.450;2022-12-29T07:59:14;11.19;;;6.91;;
70450;SDS011;58869;51.982;4.450;2022-12-29T08:01:39;11.53;;;7.04;;
70450;SDS011;58869;51.982;4.450;2022-12-29T08:04:05;11.14;;;6.73;;
70450;SDS011;58869;51.982;4.450;2022-12-29T08:06:30;13.10;;;7.75;;
70450;SDS011;58869;51.982;4.450;2022-12-29T08:08:56;12.75;;;7.65;;
70450;SDS011;58869;51.982;4.450;2022-12-29T08:11:22;11.83;;;7.21;;
70450;SDS011;58869;51.982;4.450;2022-12-29T08:13:48;10.20;;;6.29;;
70450;SDS011;58869;51.982;4.450;2022-12-29T08:16:14;11.17;;;6.87;;
70450;SDS011;58869;51.982;4.450;2022-12-29T08:18:39;11.33;;;6.85;;
70450;SDS011;58869;51.982;4.450;2022-12-29T08:21:05;12.01;;;7.20;;
70450;SDS011;58869;51.982;4.450;2022-12-29T08:23:31;12.65;;;7.55;;
70450;SDS011;58869;51.982;4.450;2022-12-29T08:25:58;12.37;;;7.36;;
70450;SDS011;58869;51.982;4.450;2022-12-29T08:28:25;12.28;;;7.47;;
70450;SDS011;58869;51.982;4.450;2022-12-29T08:30:51;11.38;;;6.92;;
70450;SDS011;58869;51.982;4.450;2022-12-29T08:33:17;11.70;;;7.07;;
70450;SDS011;58869;51.982;4.450;2022-12-29T08:35:42;11.66;;;7.10;;
70450;SDS011;58869;51.982;4.450;2022-12-29T08:38:08;10.43;;;6.44;;
70450;SDS011;58869;51.982;4.450;2022-12-29T08:40:33;10.55;;;6.42;;
70450;SDS011;58869;51.982;4.450;2022-12-29T08:42:59;11.10;;;6.70;;
70450;SDS011;58869;51.982;4.450;2022-12-29T08:45:24;11.56;;;7.05;;
70450;SDS011;58869;51.982;4.450;2022-12-29T08:47:50;11.96;;;7.28;;
70450;SDS011;58869;51.982;4.450;2022-12-29T08:50:15;11.59;;;7.12;;
70450;SDS011;58869;51.982;4.450;2022-12-29T08:52:41;11.39;;;6.98;;
70450;SDS011;58869;51.982;4.450;2022-12-29T08:55:06;11.54;;;7.04;;
70450;SDS011;58869;51.982;4.450;2022-12-29T08:57:32;10.29;;;6.37;;
70450;SDS011;58869;51.982;4.450;2022-12-29T08:59:57;10.27;;;6.40;;
70450;SDS011;58869;51.982;4.450;2022-12-29T09:02:23;12.19;;;7.46;;
70450;SDS011;58869;51.982;4.450;2022-12-29T09:04:48;10.58;;;6.64;;
70450;SDS011;58869;51.982;4.450;2022-12-29T09:07:14;10.81;;;6.73;;
70450;SDS011;58869;51.982;4.450;2022-12-29T09:09:39;10.17;;;6.25;;
70450;SDS011;58869;51.982;4.450;2022-12-29T09:12:05;11.58;;;7.07;;
70450;SDS011;58869;51.982;4.450;2022-12-29T09:14:30;12.25;;;7.44;;
70450;SDS011;58869;51.982;4.450;2022-12-29T09:16:56;11.72;;;7.13;;
70450;SDS011;58869;51.982;4.450;2022-12-29T09:19:43;11.56;;;7.06;;
70450;SDS011;58869;51.982;4.450;2022-12-29T09:22:08;11.21;;;6.86;;
70450;SDS011;58869;51.982;4.450;2022-12-29T09:24:36;11.67;;;7.11;;
70450;SDS011;58869;51.982;4.450;2022-12-29T09:27:02;10.17;;;6.23;;
70450;SDS011;58869;51.982;4.450;2022-12-29T09:29:27;10.22;;;6.29;;
70450;SDS011;58869;51.982;4.450;2022-12-29T09:31:53;10.66;;;6.68;;
70450;SDS011;58869;51.982;4.450;2022-12-29T09:34:18;10.12;;;6.45;;
70450;SDS011;58869;51.982;4.450;2022-12-29T09:36:46;9.95;;;6.28;;
70450;SDS011;58869;51.982;4.450;2022-12-29T09:39:12;9.94;;;6.28;;
70450;SDS011;58869;51.982;4.450;2022-12-29T09:41:39;10.75;;;6.73;;
70450;SDS011;58869;51.982;4.450;2022-12-29T09:44:23;10.88;;;6.98;;
70450;SDS011;58869;51.982;4.450;2022-12-29T09:46:56;10.17;;;6.48;;
70450;SDS011;58869;51.982;4.450;2022-12-29T09:49:31;11.10;;;7.10;;
70450;SDS011;58869;51.982;4.450;2022-12-29T09:52:06;12.10;;;7.67;;
70450;SDS011;58869;51.982;4.450;2022-12-29T09:54:48;13.70;;;8.55;;
70450;SDS011;58869;51.982;4.450;2022-12-29T09:57:26;12.87;;;8.16;;
70450;SDS011;58869;51.982;4.450;2022-12-29T09:59:56;14.57;;;9.21;;
70450;SDS011;58869;51.982;4.450;2022-12-29T10:05:27;15.77;;;9.84;;
70450;SDS011;58869;51.982;4.450;2022-12-29T10:08:16;15.40;;;9.73;;
70450;SDS011;58869;51.982;4.450;2022-12-29T10:13:58;16.44;;;10.51;;
70450;SDS011;58869;51.982;4.450;2022-12-29T10:24:57;16.67;;;10.61;;
70450;SDS011;58869;51.982;4.450;2022-12-29T10:27:29;15.74;;;10.14;;
70450;SDS011;58869;51.982;4.450;2022-12-29T10:29:57;14.42;;;9.37;;
70450;SDS011;58869;51.982;4.450;2022-12-29T10:32:31;14.96;;;9.79;;
70450;SDS011;58869;51.982;4.450;2022-12-29T10:35:18;15.27;;;9.75;;
70450;SDS011;58869;51.982;4.450;2022-12-29T10:37:48;16.10;;;10.07;;
70450;SDS011;58869;51.982;4.450;2022-12-29T10:40:57;16.35;;;10.20;;
70450;SDS011;58869;51.982;4.450;2022-12-29T10:43:28;15.52;;;9.74;;
70450;SDS011;58869;51.982;4.450;2022-12-29T10:46:22;17.13;;;10.60;;
70450;SDS011;58869;51.982;4.450;2022-12-29T10:48:51;17.15;;;10.40;;
70450;SDS011;58869;51.982;4.450;2022-12-29T10:51:24;18.05;;;10.83;;
70450;SDS011;58869;51.982;4.450;2022-12-29T10:53:53;18.21;;;10.94;;
70450;SDS011;58869;51.982;4.450;2022-12-29T10:58:57;18.85;;;11.38;;
70450;SDS011;58869;51.982;4.450;2022-12-29T11:01:32;20.26;;;12.02;;
70450;SDS011;58869;51.982;4.450;2022-12-29T11:04:26;19.97;;;11.81;;
70450;SDS011;58869;51.982;4.450;2022-12-29T11:07:09;19.59;;;11.49;;
70450;SDS011;58869;51.982;4.450;2022-12-29T11:09:38;18.67;;;11.11;;
70450;SDS011;58869;51.982;4.450;2022-12-29T11:15:02;17.83;;;10.59;;
70450;SDS011;58869;51.982;4.450;2022-12-29T11:17:44;19.29;;;11.32;;
70450;SDS011;58869;51.982;4.450;2022-12-29T11:20:34;18.56;;;11.02;;
70450;SDS011;58869;51.982;4.450;2022-12-29T11:23:24;19.35;;;11.38;;
70450;SDS011;58869;51.982;4.450;2022-12-29T11:28:38;16.14;;;9.77;;
70450;SDS011;58869;51.982;4.450;2022-12-29T11:31:05;17.82;;;10.77;;
70450;SDS011;58869;51.982;4.450;2022-12-29T11:33:33;16.70;;;10.11;;
70450;SDS011;58869;51.982;4.450;2022-12-29T11:36:33;16.14;;;9.72;;
70450;SDS011;58869;51.982;4.450;2022-12-29T11:38:52;12.72;;;7.78;;
70450;SDS011;58869;51.982;4.450;2022-12-29T11:41:20;11.95;;;7.28;;
70450;SDS011;58869;51.982;4.450;2022-12-29T11:43:51;12.37;;;7.46;;
70450;SDS011;58869;51.982;4.450;2022-12-29T11:46:20;11.24;;;6.81;;
70450;SDS011;58869;51.982;4.450;2022-12-29T11:48:50;14.03;;;8.57;;
70450;SDS011;58869;51.982;4.450;2022-12-29T11:51:26;13.84;;;8.50;;
70450;SDS011;58869;51.982;4.450;2022-12-29T11:54:23;15.09;;;9.25;;
70450;SDS011;58869;51.982;4.450;2022-12-29T11:56:53;17.77;;;10.59;;
70450;SDS011;58869;51.982;4.450;2022-12-29T12:04:39;15.66;;;9.39;;
70450;SDS011;58869;51.982;4.450;2022-12-29T12:07:16;16.50;;;9.76;;
70450;SDS011;58869;51.982;4.450;2022-12-29T12:09:50;14.53;;;8.80;;
70450;SDS011;58869;51.982;4.450;2022-12-29T12:12:24;15.60;;;9.45;;
70450;SDS011;58869;51.982;4.450;2022-12-29T12:14:56;14.90;;;8.89;;
70450;SDS011;58869;51.982;4.450;2022-12-29T12:17:33;14.27;;;8.49;;
70450;SDS011;58869;51.982;4.450;2022-12-29T12:20:57;14.05;;;8.49;;
70450;SDS011;58869;51.982;4.450;2022-12-29T12:32:20;10.45;;;6.37;;
70450;SDS011;58869;51.982;4.450;2022-12-29T12:35:16;11.11;;;6.63;;
70450;SDS011;58869;51.982;4.450;2022-12-29T12:44:12;12.33;;;7.52;;
70450;SDS011;58869;51.982;4.450;2022-12-29T12:57:54;12.98;;;7.88;;
70450;SDS011;58869;51.982;4.450;2022-12-29T13:00:25;12.55;;;7.63;;
70450;SDS011;58869;51.982;4.450;2022-12-29T13:03:03;12.24;;;7.57;;
70450;SDS011;58869;51.982;4.450;2022-12-29T13:08:49;11.40;;;7.14;;
70450;SDS011;58869;51.982;4.450;2022-12-29T13:22:59;10.24;;;6.56;;
70450;SDS011;58869;51.982;4.450;2022-12-29T13:25:43;10.67;;;6.71;;
70450;SDS011;58869;51.982;4.450;2022-12-29T13:28:19;11.86;;;7.32;;
70450;SDS011;58869;51.982;4.450;2022-12-29T13:33:58;11.18;;;6.98;;
70450;SDS011;58869;51.982;4.450;2022-12-29T13:36:51;9.86;;;6.47;;
70450;SDS011;58869;51.982;4.450;2022-12-29T13:39:25;8.68;;;5.96;;
70450;SDS011;58869;51.982;4.450;2022-12-29T13:41:56;8.18;;;5.77;;
70450;SDS011;58869;51.982;4.450;2022-12-29T13:44:30;6.52;;;4.68;;
70450;SDS011;58869;51.982;4.450;2022-12-29T13:47:25;6.70;;;4.88;;
70450;SDS011;58869;51.982;4.450;2022-12-29T13:49:52;5.15;;;3.76;;
70450;SDS011;58869;51.982;4.450;2022-12-29T13:52:25;4.28;;;3.13;;
70450;SDS011;58869;51.982;4.450;2022-12-29T13:55:20;5.13;;;3.72;;
70450;SDS011;58869;51.982;4.450;2022-12-29T13:58:20;5.73;;;4.17;;
70450;SDS011;58869;51.982;4.450;2022-12-29T14:06:05;5.62;;;3.93;;
70450;SDS011;58869;51.982;4.450;2022-12-29T14:08:40;5.79;;;3.99;;
70450;SDS011;58869;51.982;4.450;2022-12-29T14:11:10;5.66;;;3.89;;
70450;SDS011;58869;51.982;4.450;2022-12-29T14:13:37;6.95;;;4.73;;
70450;SDS011;58869;51.982;4.450;2022-12-29T14:16:05;6.67;;;4.47;;
70450;SDS011;58869;51.982;4.450;2022-12-29T14:18:32;7.08;;;4.63;;
70450;SDS011;58869;51.982;4.450;2022-12-29T14:21:00;6.59;;;4.30;;
70450;SDS011;58869;51.982;4.450;2022-12-29T14:28:46;7.26;;;4.64;;
70450;SDS011;58869;51.982;4.450;2022-12-29T14:34:15;8.23;;;5.26;;
70450;SDS011;58869;51.982;4.450;2022-12-29T14:37:14;7.93;;;5.09;;
70450;SDS011;58869;51.982;4.450;2022-12-29T14:39:40;7.62;;;4.86;;
70450;SDS011;58869;51.982;4.450;2022-12-29T14:44:50;6.62;;;4.32;;
70450;SDS011;58869;51.982;4.450;2022-12-29T14:47:20;6.60;;;4.34;;
70450;SDS011;58869;51.982;4.450;2022-12-29T14:49:49;6.61;;;4.30;;
70450;SDS011;58869;51.982;4.450;2022-12-29T14:52:17;7.18;;;4.63;;
70450;SDS011;58869;51.982;4.450;2022-12-29T14:57:33;6.20;;;4.06;;
70450;SDS011;58869;51.982;4.450;2022-12-29T15:02:54;7.12;;;4.73;;
70450;SDS011;58869;51.982;4.450;2022-12-29T15:05:43;6.56;;;4.47;;
70450;SDS011;58869;51.982;4.450;2022-12-29T15:08:12;5.94;;;4.08;;
70450;SDS011;58869;51.982;4.450;2022-12-29T15:10:42;6.72;;;4.62;;
70450;SDS011;58869;51.982;4.450;2022-12-29T15:13:14;6.46;;;4.40;;
70450;SDS011;58869;51.982;4.450;2022-12-29T15:15:57;6.36;;;4.37;;
70450;SDS011;58869;51.982;4.450;2022-12-29T15:18:24;7.11;;;4.78;;
70450;SDS011;58869;51.982;4.450;2022-12-29T15:20:53;6.74;;;4.49;;
70450;SDS011;58869;51.982;4.450;2022-12-29T15:23:24;7.63;;;5.07;;
70450;SDS011;58869;51.982;4.450;2022-12-29T15:28:20;8.47;;;5.50;;
70450;SDS011;58869;51.982;4.450;2022-12-29T15:31:01;9.26;;;5.90;;
70450;SDS011;58869;51.982;4.450;2022-12-29T15:33:28;9.44;;;5.97;;
70450;SDS011;58869;51.982;4.450;2022-12-29T15:35:55;8.95;;;5.66;;
70450;SDS011;58869;51.982;4.450;2022-12-29T15:40:52;9.84;;;6.19;;
70450;SDS011;58869;51.982;4.450;2022-12-29T15:43:33;8.64;;;5.49;;
70450;SDS011;58869;51.982;4.450;2022-12-29T15:46:11;8.26;;;5.26;;
70450;SDS011;58869;51.982;4.450;2022-12-29T15:48:38;7.84;;;4.99;;
70450;SDS011;58869;51.982;4.450;2022-12-29T15:51:10;8.60;;;5.47;;
70450;SDS011;58869;51.982;4.450;2022-12-29T15:53:46;8.23;;;5.20;;
70450;SDS011;58869;51.982;4.450;2022-12-29T15:56:13;8.37;;;5.32;;
70450;SDS011;58869;51.982;4.450;2022-12-29T15:58:40;7.86;;;5.03;;
70450;SDS011;58869;51.982;4.450;2022-12-29T16:01:16;6.76;;;4.36;;
70450;SDS011;58869;51.982;4.450;2022-12-29T16:03:42;7.61;;;4.83;;
70450;SDS011;58869;51.982;4.450;2022-12-29T16:06:10;7.20;;;4.61;;
70450;SDS011;58869;51.982;4.450;2022-12-29T16:09:02;7.06;;;4.56;;
70450;SDS011;58869;51.982;4.450;2022-12-29T16:11:36;6.88;;;4.51;;
70450;SDS011;58869;51.982;4.450;2022-12-29T16:14:09;6.99;;;4.58;;
70450;SDS011;58869;51.982;4.450;2022-12-29T16:16:41;7.78;;;5.01;;
70450;SDS011;58869;51.982;4.450;2022-12-29T16:19:26;6.79;;;4.37;;
70450;SDS011;58869;51.982;4.450;2022-12-29T16:22:01;7.47;;;4.83;;
70450;SDS011;58869;51.982;4.450;2022-12-29T16:24:36;7.65;;;4.92;;
70450;SDS011;58869;51.982;4.450;2022-12-29T16:29:29;8.43;;;5.37;;
70450;SDS011;58869;51.982;4.450;2022-12-29T16:31:57;7.36;;;4.81;;
70450;SDS011;58869;51.982;4.450;2022-12-29T16:39:56;9.52;;;6.03;;
70450;SDS011;58869;51.982;4.450;2022-12-29T16:42:35;9.88;;;6.27;;
70450;SDS011;58869;51.982;4.450;2022-12-29T16:47:48;8.74;;;5.56;;
70450;SDS011;58869;51.982;4.450;2022-12-29T16:50:30;8.16;;;5.27;;
70450;SDS011;58869;51.982;4.450;2022-12-29T16:52:56;8.12;;;5.29;;
70450;SDS011;58869;51.982;4.450;2022-12-29T16:55:22;8.39;;;5.48;;
70450;SDS011;58869;51.982;4.450;2022-12-29T16:57:48;8.65;;;5.56;;
70450;SDS011;58869;51.982;4.450;2022-12-29T17:00:19;8.44;;;5.38;;
70450;SDS011;58869;51.982;4.450;2022-12-29T17:02:46;8.20;;;5.24;;
70450;SDS011;58869;51.982;4.450;2022-12-29T17:05:14;7.58;;;4.84;;
70450;SDS011;58869;51.982;4.450;2022-12-29T17:07:41;7.81;;;5.09;;
70450;SDS011;58869;51.982;4.450;2022-12-29T17:10:07;7.15;;;4.73;;
70450;SDS011;58869;51.982;4.450;2022-12-29T17:12:34;7.11;;;4.56;;
70450;SDS011;58869;51.982;4.450;2022-12-29T17:17:50;7.14;;;4.62;;
70450;SDS011;58869;51.982;4.450;2022-12-29T17:20:23;7.81;;;5.05;;
70450;SDS011;58869;51.982;4.450;2022-12-29T17:22:49;7.66;;;4.96;;
70450;SDS011;58869;51.982;4.450;2022-12-29T17:25:17;8.09;;;5.30;;
70450;SDS011;58869;51.982;4.450;2022-12-29T17:27:49;7.55;;;5.00;;
70450;SDS011;58869;51.982;4.450;2022-12-29T17:30:27;7.60;;;4.99;;
70450;SDS011;58869;51.982;4.450;2022-12-29T17:33:00;7.51;;;4.96;;